Time;durP1;ratioP1;P1;durP2;ratioP2;P2;SDS_P1;SDS_P2;PMS_P1;PMS_P2;Temp;Humidity;BMP_temperature;BMP_pressure;BME280_temperature;BME280_humidity;BME280_pressure;Samples;Min_cycle;Max_cycle;Signal;HPM_P1;HPM_P2
2022/09/11 00:01:57;;;;;;;;;;;22.50;66.80;;;;;;5022232;28;88080;-44
2022/09/11 00:04:25;;;;;;;;;;;22.50;66.20;;;;;;5022837;28;87100;-44
2022/09/11 00:07:09;;;;;;;;;;;22.50;66.20;;;;;;5022202;28;87903;-44
2022/09/11 00:09:35;;;;;;;;;;;22.50;66.20;;;;;;5022261;28;88011;-44
2022/09/11 00:12:01;;;;;;;;;;;22.50;66.20;;;;;;5022870;28;87125;-44
2022/09/11 00:14:27;;;;;;;;;;;22.40;66.10;;;;;;5022466;28;87394;-44
2022/09/11 00:16:53;;;;;;;;;;;22.40;66.10;;;;;;5021925;28;89373;-44
2022/09/11 00:19:18;;;;;;;;;;;22.40;66.20;;;;;;5025049;28;87086;-44
2022/09/11 00:21:44;;;;;;;;;;;22.40;66.20;;;;;;5022301;28;87914;-44
2022/09/11 00:24:10;;;;;;;;;;;22.40;66.20;;;;;;5022735;28;86373;-44
2022/09/11 00:26:36;;;;;;;;;;;22.40;66.20;;;;;;5022559;28;86978;-44
2022/09/11 00:29:03;;;;;;;;;;;22.40;66.20;;;;;;5022060;28;88143;-44
2022/09/11 00:31:28;;;;;;;;;;;22.40;66.20;;;;;;5021813;28;87992;-43
2022/09/11 00:33:54;;;;;;;;;;;22.30;66.20;;;;;;5022371;28;88319;-44
2022/09/11 00:36:21;;;;;;;;;;;22.30;66.20;;;;;;5022749;28;88394;-44
2022/09/11 00:38:48;;;;;;;;;;;22.30;66.20;;;;;;5025838;28;87036;-44
2022/09/11 00:41:18;;;;;;;;;;;22.30;66.20;;;;;;5028220;28;88123;-44
2022/09/11 00:43:50;;;;;;;;;;;22.30;66.20;;;;;;5025390;28;87099;-44
2022/09/11 00:46:16;;;;;;;;;;;22.30;66.20;;;;;;5025884;28;87929;-44
2022/09/11 00:48:43;;;;;;;;;;;22.30;66.20;;;;;;5025999;28;87030;-44
2022/09/11 00:51:09;;;;;;;;;;;22.30;66.20;;;;;;5025813;28;86877;-44
2022/09/11 00:53:36;;;;;;;;;;;22.20;66.20;;;;;;5025574;28;88926;-44
2022/09/11 00:56:04;;;;;;;;;;;22.20;66.20;;;;;;5024334;28;89383;-44
2022/09/11 00:58:32;;;;;;;;;;;22.20;66.20;;;;;;5024809;28;87614;-43
2022/09/11 01:00:57;;;;;;;;;;;22.20;66.20;;;;;;5025452;28;87275;-44
2022/09/11 01:03:24;;;;;;;;;;;22.20;66.20;;;;;;5028029;28;87121;-44
2022/09/11 01:05:51;;;;;;;;;;;22.10;66.10;;;;;;5025465;28;87425;-44
2022/09/11 01:08:17;;;;;;;;;;;22.10;66.20;;;;;;5024712;28;87233;-44
2022/09/11 01:10:55;;;;;;;;;;;22.10;66.20;;;;;;5025565;28;86981;-44
2022/09/11 01:13:36;;;;;;;;;;;22.10;66.30;;;;;;5025567;28;87966;-44
2022/09/11 01:16:08;;;;;;;;;;;22.10;66.20;;;;;;5024982;28;87156;-44
2022/09/11 01:18:34;;;;;;;;;;;22.10;66.20;;;;;;5025024;28;87072;-44
2022/09/11 01:21:18;;;;;;;;;;;22.10;66.30;;;;;;5024584;28;88034;-44
2022/09/11 01:24:02;;;;;;;;;;;22.10;66.20;;;;;;5027779;28;87899;-44
2022/09/11 01:26:44;;;;;;;;;;;22.00;66.20;;;;;;5024905;28;88819;-43
2022/09/11 01:29:21;;;;;;;;;;;22.00;66.20;;;;;;5024877;28;87959;-44
2022/09/11 01:31:55;;;;;;;;;;;22.00;66.20;;;;;;5024767;28;87104;-44
2022/09/11 01:34:28;;;;;;;;;;;22.00;66.10;;;;;;5025037;28;87459;-44
2022/09/11 01:36:56;;;;;;;;;;;22.00;66.20;;;;;;5024422;28;89147;-44
2022/09/11 01:39:24;;;;;;;;;;;21.90;66.20;;;;;;5025347;28;86469;-43
2022/09/11 01:41:52;;;;;;;;;;;22.00;66.20;;;;;;5024591;28;88150;-44
2022/09/11 01:44:24;;;;;;;;;;;21.90;66.20;;;;;;5024242;28;87993;-44
2022/09/11 01:46:50;;;;;;;;;;;21.90;66.20;;;;;;5027218;28;88334;-44
2022/09/11 01:49:18;;;;;;;;;;;21.90;66.90;;;;;;5023794;28;87753;-44
2022/09/11 01:51:44;;;;;;;;;;;21.90;66.20;;;;;;5024606;28;87103;-44
2022/09/11 01:54:13;;;;;;;;;;;21.90;66.30;;;;;;5024924;28;87359;-44
2022/09/11 01:56:43;;;;;;;;;;;21.90;66.20;;;;;;5024307;28;89298;-44
2022/09/11 01:59:11;;;;;;;;;;;21.80;66.20;;;;;;5023762;28;87107;-44
2022/09/11 02:01:39;;;;;;;;;;;21.90;66.30;;;;;;5024636;28;87427;-44
2022/09/11 02:04:09;;;;;;;;;;;21.80;66.20;;;;;;5024777;28;87399;-44
2022/09/11 02:06:38;;;;;;;;;;;21.80;66.30;;;;;;5024284;28;86951;-44
2022/09/11 02:09:09;;;;;;;;;;;21.80;66.30;;;;;;5026564;28;87380;-44
2022/09/11 02:11:39;;;;;;;;;;;21.80;66.30;;;;;;5023628;28;88015;-43
2022/09/11 02:14:09;;;;;;;;;;;21.70;66.30;;;;;;5024168;28;89710;-43
2022/09/11 02:16:51;;;;;;;;;;;21.70;66.30;;;;;;5023971;28;89479;-44
2022/09/11 02:19:18;;;;;;;;;;;21.70;66.30;;;;;;5024302;28;87568;-44
2022/09/11 02:21:46;;;;;;;;;;;21.70;66.20;;;;;;5024331;28;87238;-43
2022/09/11 02:24:12;;;;;;;;;;;21.70;66.20;;;;;;5023854;28;89381;-44
2022/09/11 02:26:41;;;;;;;;;;;21.70;66.10;;;;;;5024250;28;87088;-44
2022/09/11 02:29:07;;;;;;;;;;;21.70;66.20;;;;;;5024453;28;90126;-44
2022/09/11 02:31:32;;;;;;;;;;;21.60;66.20;;;;;;5026760;28;88051;-44
2022/09/11 02:33:58;;;;;;;;;;;21.60;66.20;;;;;;5024227;28;88098;-44
2022/09/11 02:36:34;;;;;;;;;;;21.60;66.30;;;;;;5022920;28;90266;-43
2022/09/11 02:39:03;;;;;;;;;;;21.60;66.30;;;;;;5023823;28;86983;-43
2022/09/11 02:41:45;;;;;;;;;;;21.50;66.30;;;;;;5024097;28;87543;-43
2022/09/11 02:44:11;;;;;;;;;;;21.60;66.30;;;;;;5023819;28;88179;-44
2022/09/11 02:46:48;;;;;;;;;;;21.50;66.30;;;;;;5023783;28;87075;-43
2022/09/11 02:49:32;;;;;;;;;;;21.60;66.20;;;;;;5024092;28;87604;-44
2022/09/11 02:51:58;;;;;;;;;;;21.50;66.20;;;;;;5023439;28;88099;-43
2022/09/11 02:54:46;;;;;;;;;;;21.50;66.30;;;;;;5027171;28;86352;-44
2022/09/11 02:57:29;;;;;;;;;;;21.50;66.20;;;;;;5023408;28;87664;-43
2022/09/11 02:59:59;;;;;;;;;;;21.50;66.20;;;;;;5022287;28;87010;-43
2022/09/11 03:02:28;;;;;;;;;;;21.50;66.30;;;;;;5022856;28;88666;-44
2022/09/11 03:04:53;;;;;;;;;;;21.40;66.20;;;;;;5023241;28;87289;-44
2022/09/11 03:07:19;;;;;;;;;;;21.40;66.20;;;;;;5023710;28;87095;-43
2022/09/11 03:09:44;;;;;;;;;;;21.40;66.20;;;;;;5023285;28;87470;-43
2022/09/11 03:12:10;;;;;;;;;;;21.40;66.20;;;;;;5022522;28;89374;-44
2022/09/11 03:14:37;;;;;;;;;;;21.40;66.20;;;;;;5023556;28;87697;-44
2022/09/11 03:17:03;;;;;;;;;;;21.40;66.20;;;;;;5026044;28;87392;-43
2022/09/11 03:19:29;;;;;;;;;;;21.40;66.20;;;;;;5023706;28;86340;-44
2022/09/11 03:21:54;;;;;;;;;;;21.30;66.20;;;;;;5023337;28;87034;-43
2022/09/11 03:24:20;;;;;;;;;;;21.30;66.30;;;;;;5023064;28;87634;-43
2022/09/11 03:26:45;;;;;;;;;;;21.30;66.20;;;;;;5022036;28;88075;-44
2022/09/11 03:29:11;;;;;;;;;;;21.30;66.20;;;;;;5023370;28;87527;-43
2022/09/11 03:31:37;;;;;;;;;;;21.30;66.20;;;;;;5022858;28;87789;-43
2022/09/11 03:34:02;;;;;;;;;;;21.30;66.20;;;;;;5023264;28;87096;-44
2022/09/11 03:36:28;;;;;;;;;;;21.30;66.20;;;;;;5025698;28;87459;-43
2022/09/11 03:38:54;;;;;;;;;;;21.30;66.20;;;;;;5023054;28;86872;-44
2022/09/11 03:41:19;;;;;;;;;;;21.30;66.20;;;;;;5022900;28;88120;-43
2022/09/11 03:43:45;;;;;;;;;;;21.20;66.10;;;;;;5023164;28;87195;-44
2022/09/11 03:46:10;;;;;;;;;;;21.30;66.20;;;;;;5023021;28;87111;-44
2022/09/11 03:48:36;;;;;;;;;;;21.20;66.20;;;;;;5022890;28;87543;-44
2022/09/11 03:51:04;;;;;;;;;;;21.10;66.20;;;;;;5021960;28;88849;-44
2022/09/11 03:53:31;;;;;;;;;;;21.20;66.20;;;;;;5022665;28;87018;-44
2022/09/11 03:55:57;;;;;;;;;;;21.20;66.10;;;;;;5022417;28;88949;-44
2022/09/11 03:58:23;;;;;;;;;;;21.20;66.20;;;;;;5025152;28;88297;-44
2022/09/11 04:00:48;;;;;;;;;;;21.10;66.20;;;;;;5023022;28;87633;-44
2022/09/11 04:03:14;;;;;;;;;;;21.10;66.10;;;;;;5022367;28;88069;-43
2022/09/11 04:05:43;;;;;;;;;;;21.10;66.10;;;;;;5022989;28;87070;-43
2022/09/11 04:08:10;;;;;;;;;;;21.10;66.10;;;;;;5022364;28;88843;-44
2022/09/11 04:10:37;;;;;;;;;;;21.10;66.10;;;;;;5022356;28;87993;-44
2022/09/11 04:13:02;;;;;;;;;;;21.10;66.20;;;;;;5022035;28;87259;-43
2022/09/11 04:15:28;;;;;;;;;;;21.00;66.10;;;;;;5022229;28;87876;-44
2022/09/11 04:17:53;;;;;;;;;;;21.10;66.20;;;;;;5022188;28;88005;-43
2022/09/11 04:20:19;;;;;;;;;;;21.00;66.10;;;;;;5025426;28;87463;-43
2022/09/11 04:22:45;;;;;;;;;;;21.00;66.10;;;;;;5022597;28;88020;-44
2022/09/11 04:25:11;;;;;;;;;;;21.00;66.10;;;;;;5022409;28;87150;-44
2022/09/11 04:27:36;;;;;;;;;;;21.00;66.20;;;;;;5022194;28;88930;-43
2022/09/11 04:30:02;;;;;;;;;;;21.00;66.10;;;;;;5022069;28;87665;-44
2022/09/11 04:32:28;;;;;;;;;;;20.90;66.10;;;;;;5022680;28;86293;-44
2022/09/11 04:34:54;;;;;;;;;;;20.90;66.10;;;;;;5022487;28;87008;-44
2022/09/11 04:37:19;;;;;;;;;;;20.90;66.20;;;;;;5021603;28;89291;-43
2022/09/11 04:39:46;;;;;;;;;;;20.90;66.10;;;;;;5021500;28;88041;-43
2022/09/11 04:42:11;;;;;;;;;;;20.90;66.10;;;;;;5024361;28;89007;-43
2022/09/11 04:44:38;;;;;;;;;;;20.90;66.10;;;;;;5022370;28;87011;-44
2022/09/11 04:47:03;;;;;;;;;;;20.90;66.10;;;;;;5022129;28;89191;-43
2022/09/11 04:49:29;;;;;;;;;;;20.90;66.10;;;;;;5022024;28;88137;-44
2022/09/11 04:51:54;;;;;;;;;;;20.80;66.10;;;;;;5022277;28;87160;-44
2022/09/11 04:54:20;;;;;;;;;;;20.90;66.10;;;;;;5022251;28;87295;-44
2022/09/11 04:56:46;;;;;;;;;;;20.90;66.10;;;;;;5021805;28;87470;-44
2022/09/11 04:59:14;;;;;;;;;;;20.80;66.10;;;;;;5021847;28;87157;-44
2022/09/11 05:01:41;;;;;;;;;;;20.80;66.00;;;;;;5021948;28;89014;-43
2022/09/11 05:04:07;;;;;;;;;;;20.80;66.00;;;;;;5023786;28;90551;-43
2022/09/11 05:06:33;;;;;;;;;;;20.80;66.10;;;;;;5022094;28;88441;-43
2022/09/11 05:09:03;;;;;;;;;;;20.70;66.10;;;;;;5021283;28;88158;-44
2022/09/11 05:11:29;;;;;;;;;;;20.70;66.20;;;;;;5021663;28;87204;-43
2022/09/11 05:13:57;;;;;;;;;;;20.70;66.20;;;;;;5021787;28;88782;-44
2022/09/11 05:16:23;;;;;;;;;;;20.70;66.20;;;;;;5021377;28;89374;-43
2022/09/11 05:18:52;;;;;;;;;;;20.70;66.10;;;;;;5021967;28;87075;-44
2022/09/11 05:21:21;;;;;;;;;;;20.70;66.20;;;;;;5022140;28;87897;-44
2022/09/11 05:23:48;;;;;;;;;;;20.70;66.20;;;;;;5022417;28;89640;-44
2022/09/11 05:26:15;;;;;;;;;;;20.70;66.10;;;;;;5028162;28;87030;-44
2022/09/11 05:28:41;;;;;;;;;;;20.70;66.20;;;;;;5024025;28;88976;-44
2022/09/11 05:31:15;;;;;;;;;;;20.60;66.20;;;;;;5025222;28;87116;-44
2022/09/11 05:33:41;;;;;;;;;;;20.60;66.30;;;;;;5025055;28;88797;-44
2022/09/11 05:36:06;;;;;;;;;;;20.60;66.20;;;;;;5024689;28;87979;-44
2022/09/11 05:38:33;;;;;;;;;;;20.60;66.10;;;;;;5024737;28;87303;-43
2022/09/11 05:40:59;;;;;;;;;;;20.60;66.40;;;;;;5024937;28;87545;-43
2022/09/11 05:43:25;;;;;;;;;;;20.60;66.20;;;;;;5024428;28;88659;-44
2022/09/11 05:45:55;;;;;;;;;;;20.60;66.20;;;;;;5028261;28;86408;-43
2022/09/11 05:48:20;;;;;;;;;;;20.60;66.20;;;;;;5024658;28;86985;-44
2022/09/11 05:50:59;;;;;;;;;;;20.60;66.30;;;;;;5024929;28;87159;-44
2022/09/11 05:53:25;;;;;;;;;;;20.60;66.20;;;;;;5024088;28;87910;-43
2022/09/11 05:55:51;;;;;;;;;;;20.60;66.20;;;;;;5024562;28;87173;-44
2022/09/11 05:58:17;;;;;;;;;;;20.60;66.30;;;;;;5024731;28;87037;-44
2022/09/11 06:00:45;;;;;;;;;;;20.60;66.30;;;;;;5024469;28;87037;-44
2022/09/11 06:03:14;;;;;;;;;;;20.60;66.20;;;;;;5024172;28;87929;-44
2022/09/11 06:05:40;;;;;;;;;;;20.60;66.10;;;;;;5022884;28;87080;-44
2022/09/11 06:08:06;;;;;;;;;;;20.60;66.10;;;;;;5026826;28;87404;-44
2022/09/11 06:10:32;;;;;;;;;;;20.60;66.10;;;;;;5025085;28;86409;-44
2022/09/11 06:12:57;;;;;;;;;;;20.60;66.20;;;;;;5024392;28;87339;-43
2022/09/11 06:15:24;;;;;;;;;;;20.60;66.90;;;;;;5024171;28;87633;-44
2022/09/11 06:17:50;;;;;;;;;;;20.60;66.40;;;;;;5023436;28;87782;-44
2022/09/11 06:20:15;;;;;;;;;;;20.60;66.30;;;;;;5024175;28;88359;-44
2022/09/11 06:22:41;;;;;;;;;;;20.60;66.30;;;;;;5023985;28;88140;-44
2022/09/11 06:25:07;;;;;;;;;;;20.60;66.40;;;;;;5024076;28;87086;-44
2022/09/11 06:27:32;;;;;;;;;;;20.60;66.40;;;;;;5024431;28;87387;-44
2022/09/11 06:29:58;;;;;;;;;;;20.60;66.40;;;;;;5026769;28;87173;-43
2022/09/11 06:32:23;;;;;;;;;;;20.60;66.40;;;;;;5024293;28;87474;-44
2022/09/11 06:34:49;;;;;;;;;;;20.60;66.40;;;;;;5024142;28;87376;-44
2022/09/11 06:37:15;;;;;;;;;;;20.60;66.40;;;;;;5023841;28;87145;-44
2022/09/11 06:39:40;;;;;;;;;;;20.60;66.30;;;;;;5024166;28;87386;-44
2022/09/11 06:42:07;;;;;;;;;;;20.60;66.40;;;;;;5023066;28;88939;-43
2022/09/11 06:44:32;;;;;;;;;;;20.60;66.50;;;;;;5023577;28;87799;-44
2022/09/11 06:46:58;;;;;;;;;;;20.60;66.50;;;;;;5023827;28;88854;-44
2022/09/11 06:49:24;;;;;;;;;;;20.60;66.50;;;;;;5023766;28;88055;-44
2022/09/11 06:51:51;;;;;;;;;;;20.60;66.60;;;;;;5026572;28;87142;-44
2022/09/11 06:54:16;;;;;;;;;;;20.60;66.60;;;;;;5023332;28;88831;-44
2022/09/11 06:56:44;;;;;;;;;;;20.60;66.50;;;;;;5023923;28;87113;-44
2022/09/11 06:59:09;;;;;;;;;;;20.60;66.50;;;;;;5023853;28;87226;-44
2022/09/11 07:01:35;;;;;;;;;;;20.60;66.50;;;;;;5023308;28;87921;-43
2022/09/11 07:04:01;;;;;;;;;;;20.60;66.50;;;;;;5023705;28;87107;-43
2022/09/11 07:06:29;;;;;;;;;;;20.60;66.60;;;;;;5022868;28;88971;-44
2022/09/11 07:08:59;;;;;;;;;;;20.60;66.60;;;;;;5022285;28;88035;-44
2022/09/11 07:11:25;;;;;;;;;;;20.60;66.60;;;;;;5023477;28;87312;-43
2022/09/11 07:13:51;;;;;;;;;;;20.60;66.50;;;;;;5026059;28;88016;-44
2022/09/11 07:16:16;;;;;;;;;;;20.60;66.50;;;;;;5023436;28;87094;-44
2022/09/11 07:18:43;;;;;;;;;;;20.60;66.50;;;;;;5023457;28;86991;-43
2022/09/11 07:21:12;;;;;;;;;;;20.60;66.50;;;;;;5022911;28;87880;-44
2022/09/11 07:23:39;;;;;;;;;;;20.60;66.60;;;;;;5023771;28;86289;-43
2022/09/11 07:26:06;;;;;;;;;;;20.60;66.80;;;;;;5022930;28;88117;-43
2022/09/11 07:28:32;;;;;;;;;;;20.60;66.70;;;;;;5022943;28;88089;-43
2022/09/11 07:31:05;;;;;;;;;;;20.60;66.60;;;;;;5022612;28;88066;-44
2022/09/11 07:33:31;;;;;;;;;;;20.60;66.60;;;;;;5025539;28;90165;-44
2022/09/11 07:35:56;;;;;;;;;;;20.60;66.60;;;;;;5023241;28;86892;-44
2022/09/11 07:38:22;;;;;;;;;;;20.60;66.50;;;;;;5023029;28;88860;-44
2022/09/11 07:41:07;;;;;;;;;;;20.60;66.60;;;;;;5022736;28;87644;-43
2022/09/11 07:43:33;;;;;;;;;;;20.60;66.60;;;;;;5022957;28;87067;-44
2022/09/11 07:45:59;;;;;;;;;;;20.60;66.60;;;;;;5022414;28;87261;-44
2022/09/11 07:48:24;;;;;;;;;;;20.60;66.60;;;;;;5023113;28;87513;-44
2022/09/11 07:50:54;;;;;;;;;;;20.60;66.80;;;;;;5023073;28;87078;-44
2022/09/11 07:53:19;;;;;;;;;;;20.70;66.60;;;;;;5023009;28;87413;-43
2022/09/11 07:55:45;;;;;;;;;;;20.70;66.60;;;;;;5024992;28;89073;-44
2022/09/11 07:58:11;;;;;;;;;;;20.70;66.60;;;;;;5022850;28;87848;-43
2022/09/11 08:00:37;;;;;;;;;;;20.70;66.60;;;;;;5021893;28;89433;-44
2022/09/11 08:03:03;;;;;;;;;;;20.70;66.50;;;;;;5021407;28;87016;-43
2022/09/11 08:05:28;;;;;;;;;;;20.70;66.60;;;;;;5022645;28;88943;-44
2022/09/11 08:07:54;;;;;;;;;;;20.70;66.60;;;;;;5021693;28;89354;-44
2022/09/11 08:10:19;;;;;;;;;;;20.70;66.60;;;;;;5022600;28;86987;-44
2022/09/11 08:12:46;;;;;;;;;;;20.70;66.50;;;;;;5023183;28;87678;-44
2022/09/11 08:15:12;;;;;;;;;;;20.70;66.50;;;;;;5022107;28;89166;-43
2022/09/11 08:17:37;;;;;;;;;;;20.70;66.50;;;;;;5025353;28;87187;-44
2022/09/11 08:20:03;;;;;;;;;;;20.70;66.50;;;;;;5021582;28;89094;-43
2022/09/11 08:22:28;;;;;;;;;;;20.70;66.50;;;;;;5022722;28;86971;-43
2022/09/11 08:24:54;;;;;;;;;;;20.70;66.50;;;;;;5022695;28;87745;-44
2022/09/11 08:27:19;;;;;;;;;;;20.70;66.40;;;;;;5022001;28;88124;-44
2022/09/11 08:29:45;;;;;;;;;;;20.70;66.40;;;;;;5022586;28;87146;-44
2022/09/11 08:32:12;;;;;;;;;;;20.70;66.40;;;;;;5021929;28;88917;-44
2022/09/11 08:34:37;;;;;;;;;;;20.70;66.50;;;;;;5022086;28;88085;-44
2022/09/11 08:37:03;;;;;;;;;;;20.80;66.50;;;;;;5022936;28;86209;-44
2022/09/11 08:39:28;;;;;;;;;;;20.80;66.40;;;;;;5024884;28;87361;-44
2022/09/11 08:41:58;;;;;;;;;;;20.80;66.40;;;;;;5022444;28;87112;-44
2022/09/11 08:44:26;;;;;;;;;;;20.80;66.40;;;;;;5021498;28;88758;-44
2022/09/11 08:46:53;;;;;;;;;;;20.80;66.50;;;;;;5021709;28;87888;-44
2022/09/11 08:49:23;;;;;;;;;;;20.80;66.50;;;;;;5022080;28;87021;-44
2022/09/11 08:51:50;;;;;;;;;;;20.80;66.50;;;;;;5021870;28;88527;-44
2022/09/11 08:54:27;;;;;;;;;;;20.80;66.50;;;;;;5021504;28;89799;-44
2022/09/11 08:57:04;;;;;;;;;;;20.80;66.50;;;;;;5021831;28;87119;-44
2022/09/11 08:59:38;;;;;;;;;;;20.80;66.50;;;;;;5023855;28;88001;-44
2022/09/11 09:02:10;;;;;;;;;;;20.80;66.50;;;;;;5028641;28;87686;-44
2022/09/11 09:04:40;;;;;;;;;;;20.90;66.50;;;;;;5025783;28;87054;-44
2022/09/11 09:07:24;;;;;;;;;;;20.80;66.40;;;;;;5025065;28;89466;-44
2022/09/11 09:09:49;;;;;;;;;;;20.80;66.50;;;;;;5024578;28;88055;-44
2022/09/11 09:12:19;;;;;;;;;;;20.80;66.50;;;;;;5025526;28;88616;-44
2022/09/11 09:15:03;;;;;;;;;;;20.80;66.50;;;;;;5024811;28;89667;-44
2022/09/11 09:17:35;;;;;;;;;;;20.80;66.60;;;;;;5025324;28;87087;-44
2022/09/11 09:20:09;;;;;;;;;;;20.80;66.50;;;;;;5025061;28;87576;-44
2022/09/11 09:22:46;;;;;;;;;;;20.90;66.60;;;;;;5024750;28;89634;-44
2022/09/11 09:25:13;;;;;;;;;;;20.90;66.50;;;;;;5028105;28;86999;-44
2022/09/11 09:27:41;;;;;;;;;;;20.90;66.50;;;;;;5025480;28;86590;-44
2022/09/11 09:30:13;;;;;;;;;;;20.90;66.50;;;;;;5024981;28;87313;-44
2022/09/11 09:32:47;;;;;;;;;;;20.90;66.60;;;;;;5025197;28;87456;-44
2022/09/11 09:35:22;;;;;;;;;;;20.90;66.60;;;;;;5024187;28;89064;-44
2022/09/11 09:37:47;;;;;;;;;;;20.90;66.50;;;;;;5024910;28;87061;-44
2022/09/11 09:40:15;;;;;;;;;;;20.90;66.40;;;;;;5024884;28;87828;-44
2022/09/11 09:42:40;;;;;;;;;;;20.90;66.40;;;;;;5024442;28;87859;-44
2022/09/11 09:45:32;;;;;;;;;;;20.90;66.40;;;;;;5027691;28;87177;-44
2022/09/11 09:47:57;;;;;;;;;;;21.00;66.40;;;;;;5024674;28;88005;-44
2022/09/11 09:50:33;;;;;;;;;;;21.00;66.40;;;;;;5024789;28;87098;-44
2022/09/11 09:53:05;;;;;;;;;;;21.00;66.30;;;;;;5025340;28;87858;-44
2022/09/11 09:55:31;;;;;;;;;;;21.00;66.40;;;;;;5024259;28;88209;-44
2022/09/11 09:57:57;;;;;;;;;;;21.00;66.30;;;;;;5024398;28;87193;-44
2022/09/11 10:00:22;;;;;;;;;;;21.00;66.30;;;;;;5023920;28;88045;-44
2022/09/11 10:02:52;;;;;;;;;;;21.00;66.40;;;;;;5024254;28;88264;-43
2022/09/11 10:05:29;;;;;;;;;;;21.00;66.40;;;;;;5024522;28;87083;-43
2022/09/11 10:07:56;;;;;;;;;;;21.00;66.40;;;;;;5026471;28;87646;-44
2022/09/11 10:10:26;;;;;;;;;;;21.00;66.40;;;;;;5024106;28;86890;-44
2022/09/11 10:12:53;;;;;;;;;;;21.00;66.20;;;;;;5024409;28;87384;-44
2022/09/11 10:15:21;;;;;;;;;;;21.00;66.20;;;;;;5024038;28;89321;-44
2022/09/11 10:17:47;;;;;;;;;;;21.10;66.20;;;;;;5024660;28;86326;-44
2022/09/11 10:20:18;;;;;;;;;;;21.10;66.10;;;;;;5024574;28;86962;-44
2022/09/11 10:22:44;;;;;;;;;;;21.10;66.10;;;;;;5023510;28;87954;-44
2022/09/11 10:25:10;;;;;;;;;;;21.10;66.10;;;;;;5023726;28;88029;-44
2022/09/11 10:27:45;;;;;;;;;;;21.10;66.20;;;;;;5023920;28;89846;-44
2022/09/11 10:30:23;;;;;;;;;;;21.10;66.20;;;;;;5027052;28;87340;-44
2022/09/11 10:32:48;;;;;;;;;;;21.10;66.20;;;;;;5023986;28;87935;-43
2022/09/11 10:35:15;;;;;;;;;;;21.10;66.80;;;;;;5023985;28;88136;-44
2022/09/11 10:37:42;;;;;;;;;;;21.20;66.10;;;;;;5024308;28;87180;-43
2022/09/11 10:40:17;;;;;;;;;;;21.20;66.10;;;;;;5024048;28;87297;-44
2022/09/11 10:42:45;;;;;;;;;;;21.20;66.10;;;;;;5024245;28;87403;-44
2022/09/11 10:45:13;;;;;;;;;;;21.20;66.00;;;;;;5024046;28;87094;-44
2022/09/11 10:47:39;;;;;;;;;;;21.20;65.90;;;;;;5023970;28;87143;-44
2022/09/11 10:50:16;;;;;;;;;;;21.20;66.00;;;;;;5022664;28;88820;-44
2022/09/11 10:52:51;;;;;;;;;;;21.20;66.00;;;;;;5026954;28;87094;-44
2022/09/11 10:55:18;;;;;;;;;;;21.30;66.00;;;;;;5023465;28;88035;-44
2022/09/11 10:57:50;;;;;;;;;;;21.30;66.00;;;;;;5023841;28;86938;-44
2022/09/11 11:00:20;;;;;;;;;;;21.30;65.90;;;;;;5023301;28;88808;-44
2022/09/11 11:02:51;;;;;;;;;;;21.30;65.90;;;;;;5023218;28;88068;-44
2022/09/11 11:05:31;;;;;;;;;;;21.30;65.90;;;;;;5023530;28;87056;-44
2022/09/11 11:08:10;;;;;;;;;;;21.30;65.90;;;;;;5023736;28;87392;-44
2022/09/11 11:10:49;;;;;;;;;;;21.30;65.90;;;;;;5023210;28;87271;-44
2022/09/11 11:13:21;;;;;;;;;;;21.30;65.90;;;;;;5023380;28;87073;-44
2022/09/11 11:15:56;;;;;;;;;;;21.40;65.90;;;;;;5025824;28;87958;-44
2022/09/11 11:18:31;;;;;;;;;;;21.40;65.80;;;;;;5023177;28;87023;-44
2022/09/11 11:21:09;;;;;;;;;;;21.40;65.80;;;;;;5022054;28;89055;-44
2022/09/11 11:23:47;;;;;;;;;;;21.40;65.80;;;;;;5022790;28;88059;-44
2022/09/11 11:26:31;;;;;;;;;;;21.40;65.80;;;;;;5023489;28;87100;-44
2022/09/11 11:28:59;;;;;;;;;;;21.40;65.80;;;;;;5023312;28;87252;-44
2022/09/11 11:31:43;;;;;;;;;;;21.40;65.80;;;;;;5022868;28;87458;-44
2022/09/11 11:34:38;;;;;;;;;;;21.40;65.80;;;;;;5023722;28;86440;-44
2022/09/11 11:37:12;;;;;;;;;;;21.40;65.80;;;;;;4985299;28;87171;-44
2022/09/11 11:39:48;;;;;;;;;;;21.40;65.80;;;;;;5025864;28;88207;-44
2022/09/11 11:42:14;;;;;;;;;;;21.50;65.90;;;;;;5022403;28;87906;-44
2022/09/11 11:44:57;;;;;;;;;;;21.40;65.80;;;;;;5022670;28;88105;-44
2022/09/11 11:47:26;;;;;;;;;;;21.50;65.80;;;;;;5023140;28;87600;-44
2022/09/11 11:49:58;;;;;;;;;;;21.50;65.80;;;;;;5022785;28;88854;-44
2022/09/11 11:52:23;;;;;;;;;;;21.50;65.80;;;;;;5022414;28;88615;-44
2022/09/11 11:54:57;;;;;;;;;;;21.50;65.70;;;;;;5022834;28;87235;-43
2022/09/11 11:57:25;;;;;;;;;;;21.60;65.70;;;;;;5023013;28;87267;-44
2022/09/11 11:59:50;;;;;;;;;;;21.60;65.60;;;;;;5025547;28;87369;-43
2022/09/11 12:02:17;;;;;;;;;;;21.60;65.60;;;;;;5022601;28;88103;-43
2022/09/11 12:04:48;;;;;;;;;;;21.60;65.50;;;;;;5022143;28;89595;-44
2022/09/11 12:07:20;;;;;;;;;;;21.70;65.50;;;;;;5022119;28;87943;-44
2022/09/11 12:09:50;;;;;;;;;;;21.70;65.60;;;;;;5022751;28;88191;-43
2022/09/11 12:12:16;;;;;;;;;;;21.70;65.50;;;;;;5022101;28;89453;-44
2022/09/11 12:14:53;;;;;;;;;;;21.70;65.50;;;;;;5022577;28;87180;-44
2022/09/11 12:17:32;;;;;;;;;;;21.70;65.50;;;;;;5022529;28;87878;-44
2022/09/11 12:20:10;;;;;;;;;;;21.70;65.50;;;;;;5021809;28;87468;-44
2022/09/11 12:22:46;;;;;;;;;;;21.80;65.50;;;;;;5025554;28;87199;-44
2022/09/11 12:25:17;;;;;;;;;;;21.80;65.50;;;;;;5022452;28;87221;-43
2022/09/11 12:27:43;;;;;;;;;;;21.80;65.50;;;;;;5022451;28;87221;-44
2022/09/11 12:30:21;;;;;;;;;;;21.80;65.50;;;;;;5022548;28;86973;-44
2022/09/11 12:32:50;;;;;;;;;;;21.80;65.50;;;;;;5023054;28;88101;-44
2022/09/11 12:35:18;;;;;;;;;;;21.80;65.50;;;;;;5026359;28;86815;-44
2022/09/11 12:38:16;;;;;;;;;;;21.80;65.50;;;;;;5025917;28;87907;-44
2022/09/11 12:40:56;;;;;;;;;;;21.80;65.40;;;;;;5001866;28;89384;-43
2022/09/11 12:43:34;;;;;;;;;;;21.80;65.40;;;;;;5025744;28;87195;-44
2022/09/11 12:46:00;;;;;;;;;;;21.90;65.40;;;;;;5028594;28;87471;-44
2022/09/11 12:48:37;;;;;;;;;;;21.90;65.30;;;;;;5025609;28;87919;-44
2022/09/11 12:51:03;;;;;;;;;;;21.90;65.30;;;;;;5026526;28;87423;-44
2022/09/11 12:53:31;;;;;;;;;;;21.90;65.20;;;;;;5025192;28;88230;-44
2022/09/11 12:56:02;;;;;;;;;;;22.00;65.20;;;;;;5025665;28;87208;-43
2022/09/11 12:58:30;;;;;;;;;;;22.00;65.30;;;;;;5024908;28;88953;-43
2022/09/11 13:01:04;;;;;;;;;;;22.00;65.20;;;;;;5024815;28;89443;-44
2022/09/11 13:03:30;;;;;;;;;;;22.00;65.20;;;;;;5025323;28;87441;-44
2022/09/11 13:06:09;;;;;;;;;;;22.00;65.10;;;;;;5025119;28;89025;-44
2022/09/11 13:08:43;;;;;;;;;;;22.10;65.10;;;;;;5027368;28;87669;-44
2022/09/11 13:11:27;;;;;;;;;;;22.00;65.10;;;;;;5025594;28;87389;-43
2022/09/11 13:13:53;;;;;;;;;;;22.00;65.10;;;;;;5025250;28;89452;-44
2022/09/11 13:16:22;;;;;;;;;;;22.10;65.20;;;;;;5025607;28;86393;-44
2022/09/11 13:18:48;;;;;;;;;;;22.10;65.20;;;;;;5025507;28;87064;-44
2022/09/11 13:21:17;;;;;;;;;;;22.10;65.20;;;;;;5023536;28;89697;-44
2022/09/11 13:23:42;;;;;;;;;;;22.10;65.20;;;;;;5024348;28;88506;-44
2022/09/11 13:26:13;;;;;;;;;;;22.10;65.10;;;;;;5025247;28;88267;-43
2022/09/11 13:28:44;;;;;;;;;;;22.10;65.10;;;;;;5024758;28;89421;-44
2022/09/11 13:31:16;;;;;;;;;;;22.10;65.10;;;;;;5028011;28;87185;-44
2022/09/11 13:33:45;;;;;;;;;;;22.10;65.00;;;;;;5024699;28;88524;-43
2022/09/11 13:36:11;;;;;;;;;;;22.10;65.00;;;;;;5025043;28;87170;-42
2022/09/11 13:38:37;;;;;;;;;;;22.20;65.00;;;;;;5025070;28;87431;-43
2022/09/11 13:41:05;;;;;;;;;;;22.20;65.00;;;;;;5024842;28;88753;-44
2022/09/11 13:43:40;;;;;;;;;;;22.20;65.00;;;;;;5007570;28;87138;-42
2022/09/11 13:46:09;;;;;;;;;;;22.20;64.20;;;;;;5004424;28;87005;-42
2022/09/11 13:48:35;;;;;;;;;;;22.20;63.10;;;;;;5004135;28;89021;-40
2022/09/11 13:51:03;;;;;;;;;;;22.20;62.50;;;;;;5031509;28;87218;-43
2022/09/11 13:53:29;;;;;;;;;;;22.30;61.30;;;;;;5047515;27;86965;-49
2022/09/11 13:55:55;;;;;;;;;;;22.30;63.00;;;;;;5045216;27;87001;-45
2022/09/11 13:58:24;;;;;;;;;;;22.30;62.50;;;;;;5044875;28;88567;-43
2022/09/11 14:00:51;;;;;;;;;;;22.40;61.60;;;;;;5044182;27;87929;-45
2022/09/11 14:03:19;;;;;;;;;;;22.40;60.40;;;;;;5044436;27;87115;-46
2022/09/11 14:05:52;;;;;;;;;;;22.40;59.60;;;;;;5045087;27;89000;-45
2022/09/11 14:08:31;;;;;;;;;;;22.40;60.10;;;;;;5043651;27;89447;-49
2022/09/11 14:11:05;;;;;;;;;;;22.50;60.00;;;;;;5044433;27;87058;-49
2022/09/11 14:13:40;;;;;;;;;;;22.50;59.60;;;;;;5046346;27;88862;-47
2022/09/11 14:16:07;;;;;;;;;;;22.50;60.00;;;;;;5044409;27;87083;-47
2022/09/11 14:18:32;;;;;;;;;;;22.50;59.60;;;;;;5044277;27;87638;-46
2022/09/11 14:21:00;;;;;;;;;;;22.40;58.70;;;;;;5044274;28;87127;-46
2022/09/11 14:23:27;;;;;;;;;;;22.50;59.10;;;;;;5044139;28;87155;-42
2022/09/11 14:26:09;;;;;;;;;;;22.40;58.00;;;;;;5044707;27;87258;-47
2022/09/11 14:28:42;;;;;;;;;;;22.50;59.00;;;;;;5043981;27;87608;-44